sensor_id;sensor_type;location;lat;lon;timestamp;temperature;humidity
27978;DHT22;15314;49.248;6.968;2023-06-14T00:00:45;15.20;76.00
27978;DHT22;15314;49.248;6.968;2023-06-14T00:01:46;15.30;76.10
27978;DHT22;15314;49.248;6.968;2023-06-14T00:02:47;15.20;76.10
27978;DHT22;15314;49.248;6.968;2023-06-14T00:03:48;15.30;76.30
27978;DHT22;15314;49.248;6.968;2023-06-14T00:04:49;15.20;76.30
27978;DHT22;15314;49.248;6.968;2023-06-14T00:05:52;15.20;76.30
27978;DHT22;15314;49.248;6.968;2023-06-14T00:06:53;15.30;76.40
27978;DHT22;15314;49.248;6.968;2023-06-14T00:07:56;15.20;76.50
27978;DHT22;15314;49.248;6.968;2023-06-14T00:08:59;15.10;76.60
27978;DHT22;15314;49.248;6.968;2023-06-14T00:10:00;15.10;76.80
27978;DHT22;15314;49.248;6.968;2023-06-14T00:11:00;15.10;77.10
27978;DHT22;15314;49.248;6.968;2023-06-14T00:12:01;15.10;77.50
27978;DHT22;15314;49.248;6.968;2023-06-14T00:13:02;15.10;77.20
27978;DHT22;15314;49.248;6.968;2023-06-14T00:14:04;15.10;76.90
27978;DHT22;15314;49.248;6.968;2023-06-14T00:15:06;15.10;76.90
27978;DHT22;15314;49.248;6.968;2023-06-14T00:16:06;15.10;76.50
27978;DHT22;15314;49.248;6.968;2023-06-14T00:17:07;15.10;76.70
27978;DHT22;15314;49.248;6.968;2023-06-14T00:18:09;15.10;76.90
27978;DHT22;15314;49.248;6.968;2023-06-14T00:19:12;15.10;76.80
27978;DHT22;15314;49.248;6.968;2023-06-14T00:20:13;15.10;77.20
27978;DHT22;15314;49.248;6.968;2023-06-14T00:21:14;15.20;77.10
27978;DHT22;15314;49.248;6.968;2023-06-14T00:22:14;15.20;77.30
27978;DHT22;15314;49.248;6.968;2023-06-14T00:23:15;15.10;77.00
27978;DHT22;15314;49.248;6.968;2023-06-14T00:24:16;15.00;77.20
27978;DHT22;15314;49.248;6.968;2023-06-14T00:25:17;15.00;77.40
27978;DHT22;15314;49.248;6.968;2023-06-14T00:26:18;15.00;77.60
27978;DHT22;15314;49.248;6.968;2023-06-14T00:27:18;15.00;78.00
27978;DHT22;15314;49.248;6.968;2023-06-14T00:28:19;15.00;77.90
27978;DHT22;15314;49.248;6.968;2023-06-14T00:29:20;15.00;78.10
27978;DHT22;15314;49.248;6.968;2023-06-14T00:30:21;14.90;78.10
27978;DHT22;15314;49.248;6.968;2023-06-14T00:31:22;14.90;78.30
27978;DHT22;15314;49.248;6.968;2023-06-14T00:32:23;14.80;78.30
27978;DHT22;15314;49.248;6.968;2023-06-14T00:33:26;14.90;78.30
27978;DHT22;15314;49.248;6.968;2023-06-14T00:34:26;14.90;78.40
27978;DHT22;15314;49.248;6.968;2023-06-14T00:35:27;14.80;78.20
27978;DHT22;15314;49.248;6.968;2023-06-14T00:36:28;14.90;78.30
27978;DHT22;15314;49.248;6.968;2023-06-14T00:37:28;14.90;78.10
27978;DHT22;15314;49.248;6.968;2023-06-14T00:38:29;14.90;78.20
27978;DHT22;15314;49.248;6.968;2023-06-14T00:39:30;14.90;78.40
27978;DHT22;15314;49.248;6.968;2023-06-14T00:40:30;14.90;78.40
27978;DHT22;15314;49.248;6.968;2023-06-14T00:41:31;14.80;78.60
27978;DHT22;15314;49.248;6.968;2023-06-14T00:42:32;14.80;78.80
27978;DHT22;15314;49.248;6.968;2023-06-14T00:43:33;14.80;78.60
27978;DHT22;15314;49.248;6.968;2023-06-14T00:44:35;14.80;78.90
27978;DHT22;15314;49.248;6.968;2023-06-14T00:45:35;14.80;78.60
27978;DHT22;15314;49.248;6.968;2023-06-14T00:46:36;14.80;78.70
27978;DHT22;15314;49.248;6.968;2023-06-14T00:47:38;14.80;78.80
27978;DHT22;15314;49.248;6.968;2023-06-14T00:48:39;14.80;78.90
27978;DHT22;15314;49.248;6.968;2023-06-14T00:49:40;14.80;79.10
27978;DHT22;15314;49.248;6.968;2023-06-14T00:50:41;14.80;78.70
27978;DHT22;15314;49.248;6.968;2023-06-14T00:51:46;14.80;78.70
27978;DHT22;15314;49.248;6.968;2023-06-14T00:52:47;14.80;78.50
27978;DHT22;15314;49.248;6.968;2023-06-14T00:53:47;14.90;78.70
27978;DHT22;15314;49.248;6.968;2023-06-14T00:54:48;14.90;78.60
27978;DHT22;15314;49.248;6.968;2023-06-14T00:55:49;14.80;78.50
27978;DHT22;15314;49.248;6.968;2023-06-14T00:56:50;14.80;78.90
27978;DHT22;15314;49.248;6.968;2023-06-14T00:57:51;14.80;78.70
27978;DHT22;15314;49.248;6.968;2023-06-14T00:58:51;14.80;78.80
27978;DHT22;15314;49.248;6.968;2023-06-14T00:59:52;14.80;78.70
27978;DHT22;15314;49.248;6.968;2023-06-14T01:00:54;14.90;78.90
27978;DHT22;15314;49.248;6.968;2023-06-14T01:01:54;14.80;78.90
27978;DHT22;15314;49.248;6.968;2023-06-14T01:02:55;14.70;79.00
27978;DHT22;15314;49.248;6.968;2023-06-14T01:03:57;14.70;79.70
27978;DHT22;15314;49.248;6.968;2023-06-14T01:04:58;14.70;79.50
27978;DHT22;15314;49.248;6.968;2023-06-14T01:09:16;14.60;80.30
27978;DHT22;15314;49.248;6.968;2023-06-14T01:12:11;14.60;80.50
27978;DHT22;15314;49.248;6.968;2023-06-14T01:13:23;14.40;80.40
27978;DHT22;15314;49.248;6.968;2023-06-14T01:14:25;14.50;80.40
27978;DHT22;15314;49.248;6.968;2023-06-14T01:15:30;14.50;80.50
27978;DHT22;15314;49.248;6.968;2023-06-14T01:16:31;14.60;80.70
27978;DHT22;15314;49.248;6.968;2023-06-14T01:17:33;14.60;80.60
27978;DHT22;15314;49.248;6.968;2023-06-14T01:18:34;14.60;80.50
27978;DHT22;15314;49.248;6.968;2023-06-14T01:19:35;14.60;80.40
27978;DHT22;15314;49.248;6.968;2023-06-14T01:20:36;14.50;80.30
27978;DHT22;15314;49.248;6.968;2023-06-14T01:21:39;14.60;80.70
27978;DHT22;15314;49.248;6.968;2023-06-14T01:22:55;14.50;80.50
27978;DHT22;15314;49.248;6.968;2023-06-14T01:23:55;14.50;80.60
27978;DHT22;15314;49.248;6.968;2023-06-14T01:24:56;14.50;80.70
27978;DHT22;15314;49.248;6.968;2023-06-14T01:25:59;14.50;80.50
27978;DHT22;15314;49.248;6.968;2023-06-14T01:27:00;14.50;80.20
27978;DHT22;15314;49.248;6.968;2023-06-14T01:28:05;14.50;80.50
27978;DHT22;15314;49.248;6.968;2023-06-14T01:29:12;14.50;80.60
27978;DHT22;15314;49.248;6.968;2023-06-14T01:30:19;14.50;80.90
27978;DHT22;15314;49.248;6.968;2023-06-14T01:31:21;14.40;80.90
27978;DHT22;15314;49.248;6.968;2023-06-14T01:32:24;14.50;80.70
27978;DHT22;15314;49.248;6.968;2023-06-14T01:33:27;14.40;80.60
27978;DHT22;15314;49.248;6.968;2023-06-14T01:34:28;14.50;80.60
27978;DHT22;15314;49.248;6.968;2023-06-14T01:35:29;14.50;80.70
27978;DHT22;15314;49.248;6.968;2023-06-14T01:36:30;14.50;81.00
27978;DHT22;15314;49.248;6.968;2023-06-14T01:37:31;14.50;80.90
27978;DHT22;15314;49.248;6.968;2023-06-14T01:38:32;14.50;80.70
27978;DHT22;15314;49.248;6.968;2023-06-14T01:39:33;14.50;80.60
27978;DHT22;15314;49.248;6.968;2023-06-14T01:40:35;14.50;80.80
27978;DHT22;15314;49.248;6.968;2023-06-14T01:41:36;14.60;80.70
27978;DHT22;15314;49.248;6.968;2023-06-14T01:42:38;14.50;80.50
27978;DHT22;15314;49.248;6.968;2023-06-14T01:43:40;14.50;80.70
27978;DHT22;15314;49.248;6.968;2023-06-14T01:44:42;14.60;80.90
27978;DHT22;15314;49.248;6.968;2023-06-14T01:45:46;14.50;80.80
27978;DHT22;15314;49.248;6.968;2023-06-14T01:46:48;14.50;80.80
27978;DHT22;15314;49.248;6.968;2023-06-14T01:47:49;14.50;80.60
27978;DHT22;15314;49.248;6.968;2023-06-14T01:48:50;14.50;80.60
27978;DHT22;15314;49.248;6.968;2023-06-14T01:49:51;14.50;80.70
27978;DHT22;15314;49.248;6.968;2023-06-14T01:50:52;14.50;80.90
27978;DHT22;15314;49.248;6.968;2023-06-14T01:51:53;14.50;81.00
27978;DHT22;15314;49.248;6.968;2023-06-14T01:52:53;14.50;80.90
27978;DHT22;15314;49.248;6.968;2023-06-14T01:53:54;14.50;80.60
27978;DHT22;15314;49.248;6.968;2023-06-14T01:54:55;14.50;80.60
27978;DHT22;15314;49.248;6.968;2023-06-14T01:55:56;14.50;80.90
27978;DHT22;15314;49.248;6.968;2023-06-14T01:56:57;14.50;80.60
27978;DHT22;15314;49.248;6.968;2023-06-14T01:57:58;14.50;81.00
27978;DHT22;15314;49.248;6.968;2023-06-14T01:58:59;14.40;80.80
27978;DHT22;15314;49.248;6.968;2023-06-14T01:59:59;14.40;81.00
27978;DHT22;15314;49.248;6.968;2023-06-14T02:01:00;14.40;81.10
27978;DHT22;15314;49.248;6.968;2023-06-14T02:02:03;14.40;81.20
27978;DHT22;15314;49.248;6.968;2023-06-14T02:03:03;14.30;81.20
27978;DHT22;15314;49.248;6.968;2023-06-14T02:04:04;14.30;81.40
27978;DHT22;15314;49.248;6.968;2023-06-14T02:05:05;14.40;81.30
27978;DHT22;15314;49.248;6.968;2023-06-14T02:06:06;14.40;81.20
27978;DHT22;15314;49.248;6.968;2023-06-14T02:07:07;14.40;81.90
27978;DHT22;15314;49.248;6.968;2023-06-14T02:08:08;14.30;81.40
27978;DHT22;15314;49.248;6.968;2023-06-14T02:09:09;14.30;81.50
27978;DHT22;15314;49.248;6.968;2023-06-14T02:10:09;14.30;81.50
27978;DHT22;15314;49.248;6.968;2023-06-14T02:11:10;14.30;81.60
27978;DHT22;15314;49.248;6.968;2023-06-14T02:12:11;14.30;81.40
27978;DHT22;15314;49.248;6.968;2023-06-14T02:13:12;14.30;81.40
27978;DHT22;15314;49.248;6.968;2023-06-14T02:14:12;14.30;81.60
27978;DHT22;15314;49.248;6.968;2023-06-14T02:15:13;14.30;81.50
27978;DHT22;15314;49.248;6.968;2023-06-14T02:16:17;14.30;81.40
27978;DHT22;15314;49.248;6.968;2023-06-14T02:17:17;14.30;81.60
27978;DHT22;15314;49.248;6.968;2023-06-14T02:18:18;14.40;81.60
27978;DHT22;15314;49.248;6.968;2023-06-14T02:19:20;14.30;81.40
27978;DHT22;15314;49.248;6.968;2023-06-14T02:20:20;14.30;81.30
27978;DHT22;15314;49.248;6.968;2023-06-14T02:21:21;14.30;81.60
27978;DHT22;15314;49.248;6.968;2023-06-14T02:22:22;14.30;81.60
27978;DHT22;15314;49.248;6.968;2023-06-14T02:23:23;14.30;81.70
27978;DHT22;15314;49.248;6.968;2023-06-14T02:24:23;14.30;81.80
27978;DHT22;15314;49.248;6.968;2023-06-14T02:25:24;14.30;82.00
27978;DHT22;15314;49.248;6.968;2023-06-14T02:26:25;14.30;82.00
27978;DHT22;15314;49.248;6.968;2023-06-14T02:27:29;14.30;81.80
27978;DHT22;15314;49.248;6.968;2023-06-14T02:28:29;14.30;81.80
27978;DHT22;15314;49.248;6.968;2023-06-14T02:29:30;14.30;81.40
27978;DHT22;15314;49.248;6.968;2023-06-14T02:30:31;14.30;81.30
27978;DHT22;15314;49.248;6.968;2023-06-14T02:31:32;14.30;81.70
27978;DHT22;15314;49.248;6.968;2023-06-14T02:32:33;14.20;81.80
27978;DHT22;15314;49.248;6.968;2023-06-14T02:33:37;14.20;82.10
27978;DHT22;15314;49.248;6.968;2023-06-14T02:34:38;14.20;81.90
27978;DHT22;15314;49.248;6.968;2023-06-14T02:35:41;14.20;82.00
27978;DHT22;15314;49.248;6.968;2023-06-14T02:36:45;14.20;82.30
27978;DHT22;15314;49.248;6.968;2023-06-14T02:37:46;14.20;82.40
27978;DHT22;15314;49.248;6.968;2023-06-14T02:38:47;14.20;81.90
27978;DHT22;15314;49.248;6.968;2023-06-14T02:39:48;14.20;82.40
27978;DHT22;15314;49.248;6.968;2023-06-14T02:40:49;14.20;82.30
27978;DHT22;15314;49.248;6.968;2023-06-14T02:41:50;14.20;82.20
27978;DHT22;15314;49.248;6.968;2023-06-14T02:42:50;14.20;82.10
27978;DHT22;15314;49.248;6.968;2023-06-14T02:43:51;14.20;82.30
27978;DHT22;15314;49.248;6.968;2023-06-14T02:44:52;14.20;82.30
27978;DHT22;15314;49.248;6.968;2023-06-14T02:45:53;14.20;82.10
27978;DHT22;15314;49.248;6.968;2023-06-14T02:46:54;14.20;82.20
27978;DHT22;15314;49.248;6.968;2023-06-14T02:47:55;14.20;82.80
27978;DHT22;15314;49.248;6.968;2023-06-14T02:48:56;14.20;82.30
27978;DHT22;15314;49.248;6.968;2023-06-14T02:49:57;14.20;82.20
27978;DHT22;15314;49.248;6.968;2023-06-14T02:50:57;14.20;82.00
27978;DHT22;15314;49.248;6.968;2023-06-14T02:51:58;14.20;82.00
27978;DHT22;15314;49.248;6.968;2023-06-14T02:52:59;14.20;82.10
27978;DHT22;15314;49.248;6.968;2023-06-14T02:53:59;14.20;82.10
27978;DHT22;15314;49.248;6.968;2023-06-14T02:55:00;14.10;82.00
27978;DHT22;15314;49.248;6.968;2023-06-14T02:56:00;14.20;82.20
27978;DHT22;15314;49.248;6.968;2023-06-14T02:57:01;14.10;82.30
27978;DHT22;15314;49.248;6.968;2023-06-14T02:58:02;14.20;82.00
27978;DHT22;15314;49.248;6.968;2023-06-14T02:59:03;14.20;81.90
27978;DHT22;15314;49.248;6.968;2023-06-14T03:00:04;14.10;81.90
27978;DHT22;15314;49.248;6.968;2023-06-14T03:01:05;14.10;81.90
27978;DHT22;15314;49.248;6.968;2023-06-14T03:02:08;14.10;82.00
27978;DHT22;15314;49.248;6.968;2023-06-14T03:03:08;14.20;81.90
27978;DHT22;15314;49.248;6.968;2023-06-14T03:04:16;14.10;81.80
27978;DHT22;15314;49.248;6.968;2023-06-14T03:05:17;14.20;81.70
27978;DHT22;15314;49.248;6.968;2023-06-14T03:06:21;14.20;81.80
27978;DHT22;15314;49.248;6.968;2023-06-14T03:07:25;14.20;81.30
27978;DHT22;15314;49.248;6.968;2023-06-14T03:08:28;14.30;81.60
27978;DHT22;15314;49.248;6.968;2023-06-14T03:09:29;14.30;81.10
27978;DHT22;15314;49.248;6.968;2023-06-14T03:10:30;14.40;81.30
27978;DHT22;15314;49.248;6.968;2023-06-14T03:11:31;14.30;81.10
27978;DHT22;15314;49.248;6.968;2023-06-14T03:12:32;14.40;81.20
27978;DHT22;15314;49.248;6.968;2023-06-14T03:13:33;14.30;81.10
27978;DHT22;15314;49.248;6.968;2023-06-14T03:14:34;14.40;81.30
27978;DHT22;15314;49.248;6.968;2023-06-14T03:15:35;14.30;81.40
27978;DHT22;15314;49.248;6.968;2023-06-14T03:16:35;14.40;81.40
27978;DHT22;15314;49.248;6.968;2023-06-14T03:17:37;14.40;81.30
27978;DHT22;15314;49.248;6.968;2023-06-14T03:18:39;14.40;81.50
27978;DHT22;15314;49.248;6.968;2023-06-14T03:19:40;14.30;81.40
27978;DHT22;15314;49.248;6.968;2023-06-14T03:20:41;14.40;81.00
27978;DHT22;15314;49.248;6.968;2023-06-14T03:21:43;14.40;81.00
27978;DHT22;15314;49.248;6.968;2023-06-14T03:22:44;14.40;81.30
27978;DHT22;15314;49.248;6.968;2023-06-14T03:23:47;14.40;81.30
27978;DHT22;15314;49.248;6.968;2023-06-14T03:24:48;14.30;81.10
27978;DHT22;15314;49.248;6.968;2023-06-14T03:25:49;14.30;81.10
27978;DHT22;15314;49.248;6.968;2023-06-14T03:26:50;14.30;81.10
27978;DHT22;15314;49.248;6.968;2023-06-14T03:27:50;14.30;81.00
27978;DHT22;15314;49.248;6.968;2023-06-14T03:28:51;14.40;80.80
27978;DHT22;15314;49.248;6.968;2023-06-14T03:29:51;14.40;81.00
27978;DHT22;15314;49.248;6.968;2023-06-14T03:30:52;14.40;81.10
27978;DHT22;15314;49.248;6.968;2023-06-14T03:32:02;14.40;80.90
27978;DHT22;15314;49.248;6.968;2023-06-14T03:33:03;14.40;80.80
27978;DHT22;15314;49.248;6.968;2023-06-14T03:34:05;14.40;81.00
27978;DHT22;15314;49.248;6.968;2023-06-14T03:35:06;14.40;80.80
27978;DHT22;15314;49.248;6.968;2023-06-14T03:36:06;14.40;80.70
27978;DHT22;15314;49.248;6.968;2023-06-14T03:37:07;14.40;80.80
27978;DHT22;15314;49.248;6.968;2023-06-14T03:38:08;14.40;81.20
27978;DHT22;15314;49.248;6.968;2023-06-14T03:39:08;14.40;81.50
27978;DHT22;15314;49.248;6.968;2023-06-14T03:40:10;14.40;81.00
27978;DHT22;15314;49.248;6.968;2023-06-14T03:41:10;14.40;81.00
27978;DHT22;15314;49.248;6.968;2023-06-14T03:42:12;14.40;81.30
27978;DHT22;15314;49.248;6.968;2023-06-14T03:43:13;14.40;81.00
27978;DHT22;15314;49.248;6.968;2023-06-14T03:44:16;14.40;81.00
27978;DHT22;15314;49.248;6.968;2023-06-14T03:45:17;14.40;80.70
27978;DHT22;15314;49.248;6.968;2023-06-14T03:46:18;14.40;80.50
27978;DHT22;15314;49.248;6.968;2023-06-14T03:47:18;14.40;80.40
27978;DHT22;15314;49.248;6.968;2023-06-14T03:48:19;14.50;80.40
27978;DHT22;15314;49.248;6.968;2023-06-14T03:49:20;14.50;79.90
27978;DHT22;15314;49.248;6.968;2023-06-14T03:50:21;14.50;79.70
27978;DHT22;15314;49.248;6.968;2023-06-14T03:51:22;14.50;79.80
27978;DHT22;15314;49.248;6.968;2023-06-14T03:52:23;14.50;79.70
27978;DHT22;15314;49.248;6.968;2023-06-14T03:53:23;14.50;79.60
27978;DHT22;15314;49.248;6.968;2023-06-14T03:54:24;14.50;79.90
27978;DHT22;15314;49.248;6.968;2023-06-14T03:55:25;14.50;79.30
27978;DHT22;15314;49.248;6.968;2023-06-14T03:56:25;14.60;79.40
27978;DHT22;15314;49.248;6.968;2023-06-14T03:57:27;14.60;78.80
27978;DHT22;15314;49.248;6.968;2023-06-14T03:58:27;14.60;79.30
27978;DHT22;15314;49.248;6.968;2023-06-14T03:59:28;14.60;79.20
27978;DHT22;15314;49.248;6.968;2023-06-14T04:00:29;14.70;79.40
27978;DHT22;15314;49.248;6.968;2023-06-14T04:01:30;14.70;79.40
27978;DHT22;15314;49.248;6.968;2023-06-14T04:02:31;14.70;78.80
27978;DHT22;15314;49.248;6.968;2023-06-14T04:03:32;14.80;78.60
27978;DHT22;15314;49.248;6.968;2023-06-14T04:04:33;14.80;78.70
27978;DHT22;15314;49.248;6.968;2023-06-14T04:05:35;14.80;78.50
27978;DHT22;15314;49.248;6.968;2023-06-14T04:06:36;14.90;78.40
27978;DHT22;15314;49.248;6.968;2023-06-14T04:07:37;14.80;78.40
27978;DHT22;15314;49.248;6.968;2023-06-14T04:08:45;14.90;78.20
27978;DHT22;15314;49.248;6.968;2023-06-14T04:09:46;14.90;77.90
27978;DHT22;15314;49.248;6.968;2023-06-14T04:10:47;14.90;77.90
27978;DHT22;15314;49.248;6.968;2023-06-14T04:11:47;14.90;77.90
27978;DHT22;15314;49.248;6.968;2023-06-14T04:12:48;14.90;78.30
27978;DHT22;15314;49.248;6.968;2023-06-14T04:13:49;14.90;78.10
27978;DHT22;15314;49.248;6.968;2023-06-14T04:14:50;15.00;77.90
27978;DHT22;15314;49.248;6.968;2023-06-14T04:15:51;15.00;78.00
27978;DHT22;15314;49.248;6.968;2023-06-14T04:16:52;15.00;78.40
27978;DHT22;15314;49.248;6.968;2023-06-14T04:17:52;15.00;77.90
27978;DHT22;15314;49.248;6.968;2023-06-14T04:18:57;15.00;77.60
27978;DHT22;15314;49.248;6.968;2023-06-14T04:19:59;15.10;77.40
27978;DHT22;15314;49.248;6.968;2023-06-14T04:21:00;15.10;77.50
27978;DHT22;15314;49.248;6.968;2023-06-14T04:22:01;15.10;77.60
27978;DHT22;15314;49.248;6.968;2023-06-14T04:23:13;15.10;77.30
27978;DHT22;15314;49.248;6.968;2023-06-14T04:24:14;15.20;77.50
27978;DHT22;15314;49.248;6.968;2023-06-14T04:25:14;15.20;77.80
27978;DHT22;15314;49.248;6.968;2023-06-14T04:26:15;15.20;77.80
27978;DHT22;15314;49.248;6.968;2023-06-14T04:27:16;15.20;78.50
27978;DHT22;15314;49.248;6.968;2023-06-14T04:28:21;15.20;78.10
27978;DHT22;15314;49.248;6.968;2023-06-14T04:29:27;15.20;77.70
27978;DHT22;15314;49.248;6.968;2023-06-14T04:30:29;15.20;78.00
27978;DHT22;15314;49.248;6.968;2023-06-14T04:31:32;15.20;78.20
27978;DHT22;15314;49.248;6.968;2023-06-14T04:32:38;15.30;77.80
27978;DHT22;15314;49.248;6.968;2023-06-14T04:33:42;15.30;77.50
27978;DHT22;15314;49.248;6.968;2023-06-14T04:34:44;15.30;77.80
27978;DHT22;15314;49.248;6.968;2023-06-14T04:35:44;15.40;77.80
27978;DHT22;15314;49.248;6.968;2023-06-14T04:36:47;15.40;77.90
27978;DHT22;15314;49.248;6.968;2023-06-14T04:37:53;15.40;78.10
27978;DHT22;15314;49.248;6.968;2023-06-14T04:38:54;15.40;77.50
27978;DHT22;15314;49.248;6.968;2023-06-14T04:39:55;15.50;77.20
27978;DHT22;15314;49.248;6.968;2023-06-14T04:40:56;15.50;77.40
27978;DHT22;15314;49.248;6.968;2023-06-14T04:41:57;15.60;77.70
27978;DHT22;15314;49.248;6.968;2023-06-14T04:43:00;15.60;77.90
27978;DHT22;15314;49.248;6.968;2023-06-14T04:44:01;15.70;77.70
27978;DHT22;15314;49.248;6.968;2023-06-14T04:45:02;15.80;78.60
27978;DHT22;15314;49.248;6.968;2023-06-14T04:46:06;15.80;78.20
27978;DHT22;15314;49.248;6.968;2023-06-14T04:47:11;15.80;77.60
27978;DHT22;15314;49.248;6.968;2023-06-14T04:48:16;15.80;76.70
27978;DHT22;15314;49.248;6.968;2023-06-14T04:49:20;15.80;76.50
27978;DHT22;15314;49.248;6.968;2023-06-14T04:50:23;15.80;77.50
27978;DHT22;15314;49.248;6.968;2023-06-14T04:51:24;15.80;77.40
27978;DHT22;15314;49.248;6.968;2023-06-14T04:52:29;15.80;77.50
27978;DHT22;15314;49.248;6.968;2023-06-14T04:53:31;15.90;77.40
27978;DHT22;15314;49.248;6.968;2023-06-14T04:54:31;15.90;77.10
27978;DHT22;15314;49.248;6.968;2023-06-14T04:55:34;16.00;77.00
27978;DHT22;15314;49.248;6.968;2023-06-14T04:56:34;16.00;76.80
27978;DHT22;15314;49.248;6.968;2023-06-14T04:57:35;16.10;76.70
27978;DHT22;15314;49.248;6.968;2023-06-14T04:58:36;16.10;76.80
27978;DHT22;15314;49.248;6.968;2023-06-14T04:59:36;16.20;76.80
27978;DHT22;15314;49.248;6.968;2023-06-14T05:00:37;16.20;76.70
27978;DHT22;15314;49.248;6.968;2023-06-14T05:01:37;16.20;76.20
27978;DHT22;15314;49.248;6.968;2023-06-14T05:02:38;16.30;76.50
27978;DHT22;15314;49.248;6.968;2023-06-14T05:03:39;16.30;75.60
27978;DHT22;15314;49.248;6.968;2023-06-14T05:04:40;16.30;75.90
27978;DHT22;15314;49.248;6.968;2023-06-14T05:05:41;16.40;76.30
27978;DHT22;15314;49.248;6.968;2023-06-14T05:06:44;16.40;76.10
27978;DHT22;15314;49.248;6.968;2023-06-14T05:07:45;16.50;76.40
27978;DHT22;15314;49.248;6.968;2023-06-14T05:08:46;16.50;76.30
27978;DHT22;15314;49.248;6.968;2023-06-14T05:09:47;16.50;76.40
27978;DHT22;15314;49.248;6.968;2023-06-14T05:10:48;16.50;76.90
27978;DHT22;15314;49.248;6.968;2023-06-14T05:12:09;16.50;76.40
27978;DHT22;15314;49.248;6.968;2023-06-14T05:13:10;16.60;76.30
27978;DHT22;15314;49.248;6.968;2023-06-14T05:14:12;16.60;75.60
27978;DHT22;15314;49.248;6.968;2023-06-14T05:15:12;16.70;75.70
27978;DHT22;15314;49.248;6.968;2023-06-14T05:16:13;16.70;75.90
27978;DHT22;15314;49.248;6.968;2023-06-14T05:17:16;16.80;75.70
27978;DHT22;15314;49.248;6.968;2023-06-14T05:18:17;16.80;76.00
27978;DHT22;15314;49.248;6.968;2023-06-14T05:19:18;16.90;75.80
27978;DHT22;15314;49.248;6.968;2023-06-14T05:20:19;17.00;75.70
27978;DHT22;15314;49.248;6.968;2023-06-14T05:21:20;17.00;74.90
27978;DHT22;15314;49.248;6.968;2023-06-14T05:22:20;17.00;75.40
27978;DHT22;15314;49.248;6.968;2023-06-14T05:23:21;17.10;75.80
27978;DHT22;15314;49.248;6.968;2023-06-14T05:24:22;17.10;74.80
27978;DHT22;15314;49.248;6.968;2023-06-14T05:25:22;17.20;74.60
27978;DHT22;15314;49.248;6.968;2023-06-14T05:26:23;17.20;74.90
27978;DHT22;15314;49.248;6.968;2023-06-14T05:27:25;17.30;74.70
27978;DHT22;15314;49.248;6.968;2023-06-14T05:28:26;17.40;75.10
27978;DHT22;15314;49.248;6.968;2023-06-14T05:29:27;17.40;75.20
27978;DHT22;15314;49.248;6.968;2023-06-14T05:30:27;17.50;75.10
27978;DHT22;15314;49.248;6.968;2023-06-14T05:31:33;17.50;74.60
27978;DHT22;15314;49.248;6.968;2023-06-14T05:32:33;17.50;74.30
27978;DHT22;15314;49.248;6.968;2023-06-14T05:33:34;17.60;75.00
27978;DHT22;15314;49.248;6.968;2023-06-14T05:34:35;17.60;75.50
27978;DHT22;15314;49.248;6.968;2023-06-14T05:35:35;17.70;75.40
27978;DHT22;15314;49.248;6.968;2023-06-14T05:36:38;17.70;74.80
27978;DHT22;15314;49.248;6.968;2023-06-14T05:37:39;17.70;74.50
27978;DHT22;15314;49.248;6.968;2023-06-14T05:38:40;17.80;74.90
27978;DHT22;15314;49.248;6.968;2023-06-14T05:39:40;17.80;74.50
27978;DHT22;15314;49.248;6.968;2023-06-14T05:40:41;17.90;74.10
27978;DHT22;15314;49.248;6.968;2023-06-14T05:41:41;17.90;74.50
27978;DHT22;15314;49.248;6.968;2023-06-14T05:42:42;17.90;74.40
27978;DHT22;15314;49.248;6.968;2023-06-14T05:43:43;18.00;74.20
27978;DHT22;15314;49.248;6.968;2023-06-14T05:44:43;18.00;74.30
27978;DHT22;15314;49.248;6.968;2023-06-14T05:45:44;18.10;73.70
27978;DHT22;15314;49.248;6.968;2023-06-14T05:46:45;18.10;74.20
27978;DHT22;15314;49.248;6.968;2023-06-14T05:47:45;18.20;74.20
27978;DHT22;15314;49.248;6.968;2023-06-14T05:48:46;18.20;73.60
27978;DHT22;15314;49.248;6.968;2023-06-14T05:49:46;18.30;73.30
27978;DHT22;15314;49.248;6.968;2023-06-14T05:50:47;18.30;73.70
27978;DHT22;15314;49.248;6.968;2023-06-14T05:51:48;18.30;73.00
27978;DHT22;15314;49.248;6.968;2023-06-14T05:52:49;18.40;72.80
27978;DHT22;15314;49.248;6.968;2023-06-14T05:53:49;18.50;72.90
27978;DHT22;15314;49.248;6.968;2023-06-14T05:54:50;18.50;73.40
27978;DHT22;15314;49.248;6.968;2023-06-14T05:55:51;18.60;72.80
27978;DHT22;15314;49.248;6.968;2023-06-14T05:56:55;18.60;73.00
27978;DHT22;15314;49.248;6.968;2023-06-14T05:57:56;18.60;72.00
27978;DHT22;15314;49.248;6.968;2023-06-14T05:58:57;18.70;72.60
27978;DHT22;15314;49.248;6.968;2023-06-14T05:59:57;18.70;71.80
27978;DHT22;15314;49.248;6.968;2023-06-14T06:00:59;18.70;72.90
27978;DHT22;15314;49.248;6.968;2023-06-14T06:01:59;18.80;72.90
27978;DHT22;15314;49.248;6.968;2023-06-14T06:03:00;18.80;72.30
27978;DHT22;15314;49.248;6.968;2023-06-14T06:04:01;18.90;72.40
27978;DHT22;15314;49.248;6.968;2023-06-14T06:05:02;19.10;72.40
27978;DHT22;15314;49.248;6.968;2023-06-14T06:06:02;19.60;72.00
27978;DHT22;15314;49.248;6.968;2023-06-14T06:07:03;20.70;70.20
27978;DHT22;15314;49.248;6.968;2023-06-14T06:08:04;22.00;67.30
27978;DHT22;15314;49.248;6.968;2023-06-14T06:09:05;22.90;65.00
27978;DHT22;15314;49.248;6.968;2023-06-14T06:10:07;23.10;63.00
27978;DHT22;15314;49.248;6.968;2023-06-14T06:11:08;22.70;63.60
27978;DHT22;15314;49.248;6.968;2023-06-14T06:12:09;22.20;64.30
27978;DHT22;15314;49.248;6.968;2023-06-14T06:13:10;21.90;65.60
27978;DHT22;15314;49.248;6.968;2023-06-14T06:14:11;21.60;65.80
27978;DHT22;15314;49.248;6.968;2023-06-14T06:15:11;21.30;65.50
27978;DHT22;15314;49.248;6.968;2023-06-14T06:16:12;21.00;65.90
27978;DHT22;15314;49.248;6.968;2023-06-14T06:17:13;20.80;68.00
27978;DHT22;15314;49.248;6.968;2023-06-14T06:18:13;20.60;66.60
27978;DHT22;15314;49.248;6.968;2023-06-14T06:19:14;20.40;67.30
27978;DHT22;15314;49.248;6.968;2023-06-14T06:20:15;20.20;66.90
27978;DHT22;15314;49.248;6.968;2023-06-14T06:21:16;20.10;68.10
27978;DHT22;15314;49.248;6.968;2023-06-14T06:22:16;20.10;67.50
27978;DHT22;15314;49.248;6.968;2023-06-14T06:23:17;20.00;67.80
27978;DHT22;15314;49.248;6.968;2023-06-14T06:24:18;20.00;66.70
27978;DHT22;15314;49.248;6.968;2023-06-14T06:25:18;20.00;67.00
27978;DHT22;15314;49.248;6.968;2023-06-14T06:26:19;19.90;67.50
27978;DHT22;15314;49.248;6.968;2023-06-14T06:27:20;20.00;68.30
27978;DHT22;15314;49.248;6.968;2023-06-14T06:28:20;20.00;67.90
27978;DHT22;15314;49.248;6.968;2023-06-14T06:29:21;20.00;67.00
27978;DHT22;15314;49.248;6.968;2023-06-14T06:30:22;20.00;67.90
27978;DHT22;15314;49.248;6.968;2023-06-14T06:31:23;20.00;68.20
27978;DHT22;15314;49.248;6.968;2023-06-14T06:32:23;20.00;68.40
27978;DHT22;15314;49.248;6.968;2023-06-14T06:33:24;20.10;68.80